sensor_id;sensor_type;location;lat;lon;timestamp;P1;durP1;ratioP1;P2;durP2;ratioP2
13795;SDS011;40911;51.552;9.874;2023-10-08T00:00:25;15.25;;;5.40;;
13795;SDS011;40911;51.552;9.874;2023-10-08T00:03:07;11.93;;;4.78;;
13795;SDS011;40911;51.552;9.874;2023-10-08T00:05:34;13.05;;;5.30;;
13795;SDS011;40911;51.552;9.874;2023-10-08T00:07:56;12.35;;;5.72;;
13795;SDS011;40911;51.552;9.874;2023-10-08T00:10:18;11.15;;;5.30;;
13795;SDS011;40911;51.552;9.874;2023-10-08T00:15:09;10.40;;;5.40;;
13795;SDS011;40911;51.552;9.874;2023-10-08T00:17:32;13.23;;;5.28;;
13795;SDS011;40911;51.552;9.874;2023-10-08T00:19:54;17.17;;;5.13;;
13795;SDS011;40911;51.552;9.874;2023-10-08T00:22:20;9.35;;;4.78;;
13795;SDS011;40911;51.552;9.874;2023-10-08T00:24:45;12.35;;;5.30;;
13795;SDS011;40911;51.552;9.874;2023-10-08T00:27:09;10.10;;;5.45;;
13795;SDS011;40911;51.552;9.874;2023-10-08T00:29:34;11.50;;;5.05;;
13795;SDS011;40911;51.552;9.874;2023-10-08T00:32:00;11.27;;;5.30;;
13795;SDS011;40911;51.552;9.874;2023-10-08T00:34:33;11.82;;;5.68;;
13795;SDS011;40911;51.552;9.874;2023-10-08T00:36:57;15.60;;;5.75;;
13795;SDS011;40911;51.552;9.874;2023-10-08T00:39:19;10.43;;;5.43;;
13795;SDS011;40911;51.552;9.874;2023-10-08T00:41:44;9.10;;;5.97;;
13795;SDS011;40911;51.552;9.874;2023-10-08T00:44:07;15.02;;;5.75;;
13795;SDS011;40911;51.552;9.874;2023-10-08T00:46:30;11.98;;;5.30;;
13795;SDS011;40911;51.552;9.874;2023-10-08T00:48:56;13.32;;;5.38;;
13795;SDS011;40911;51.552;9.874;2023-10-08T00:51:33;14.38;;;5.50;;
13795;SDS011;40911;51.552;9.874;2023-10-08T00:54:01;13.10;;;5.78;;
13795;SDS011;40911;51.552;9.874;2023-10-08T00:56:31;12.85;;;6.05;;
13795;SDS011;40911;51.552;9.874;2023-10-08T00:59:10;16.80;;;6.45;;
13795;SDS011;40911;51.552;9.874;2023-10-08T01:01:34;13.30;;;5.80;;
13795;SDS011;40911;51.552;9.874;2023-10-08T01:03:59;10.15;;;5.57;;
13795;SDS011;40911;51.552;9.874;2023-10-08T01:06:23;13.98;;;5.82;;
13795;SDS011;40911;51.552;9.874;2023-10-08T01:08:51;13.88;;;6.22;;
13795;SDS011;40911;51.552;9.874;2023-10-08T01:11:18;11.00;;;5.97;;
13795;SDS011;40911;51.552;9.874;2023-10-08T01:13:42;13.77;;;5.93;;
13795;SDS011;40911;51.552;9.874;2023-10-08T01:16:06;18.23;;;6.35;;
13795;SDS011;40911;51.552;9.874;2023-10-08T01:18:30;13.68;;;6.10;;
13795;SDS011;40911;51.552;9.874;2023-10-08T01:20:55;12.52;;;6.57;;
13795;SDS011;40911;51.552;9.874;2023-10-08T01:23:25;16.80;;;6.55;;
13795;SDS011;40911;51.552;9.874;2023-10-08T01:25:49;13.57;;;6.55;;
13795;SDS011;40911;51.552;9.874;2023-10-08T01:28:12;14.38;;;6.82;;
13795;SDS011;40911;51.552;9.874;2023-10-08T01:30:38;15.75;;;6.30;;
13795;SDS011;40911;51.552;9.874;2023-10-08T01:33:02;10.77;;;6.45;;
13795;SDS011;40911;51.552;9.874;2023-10-08T01:35:24;14.52;;;6.40;;
13795;SDS011;40911;51.552;9.874;2023-10-08T01:37:46;20.02;;;6.47;;
13795;SDS011;40911;51.552;9.874;2023-10-08T01:40:10;17.60;;;7.50;;
13795;SDS011;40911;51.552;9.874;2023-10-08T01:42:32;17.73;;;7.13;;
13795;SDS011;40911;51.552;9.874;2023-10-08T01:44:58;20.20;;;6.70;;
13795;SDS011;40911;51.552;9.874;2023-10-08T01:47:21;19.92;;;7.72;;
13795;SDS011;40911;51.552;9.874;2023-10-08T01:49:45;16.45;;;6.38;;
13795;SDS011;40911;51.552;9.874;2023-10-08T01:54:34;16.60;;;6.65;;
13795;SDS011;40911;51.552;9.874;2023-10-08T01:56:58;13.18;;;6.57;;
13795;SDS011;40911;51.552;9.874;2023-10-08T01:59:20;13.98;;;6.85;;
13795;SDS011;40911;51.552;9.874;2023-10-08T02:04:04;16.75;;;7.05;;
13795;SDS011;40911;51.552;9.874;2023-10-08T02:06:27;15.95;;;6.95;;
13795;SDS011;40911;51.552;9.874;2023-10-08T02:08:51;17.80;;;7.30;;
13795;SDS011;40911;51.552;9.874;2023-10-08T02:11:13;13.80;;;7.28;;
13795;SDS011;40911;51.552;9.874;2023-10-08T02:13:37;17.00;;;7.40;;
13795;SDS011;40911;51.552;9.874;2023-10-08T02:15:59;15.48;;;7.10;;
13795;SDS011;40911;51.552;9.874;2023-10-08T02:20:43;11.00;;;7.13;;
13795;SDS011;40911;51.552;9.874;2023-10-08T02:23:05;12.45;;;5.15;;
13795;SDS011;40911;51.552;9.874;2023-10-08T02:25:27;2.20;;;1.52;;
13795;SDS011;40911;51.552;9.874;2023-10-08T02:27:49;1.27;;;1.10;;
13795;SDS011;40911;51.552;9.874;2023-10-08T02:30:13;1.25;;;0.80;;
13795;SDS011;40911;51.552;9.874;2023-10-08T02:32:34;0.80;;;0.75;;
13795;SDS011;40911;51.552;9.874;2023-10-08T02:34:57;0.70;;;0.70;;
13795;SDS011;40911;51.552;9.874;2023-10-08T02:37:19;0.60;;;0.60;;
13795;SDS011;40911;51.552;9.874;2023-10-08T02:44:30;0.60;;;0.60;;
13795;SDS011;40911;51.552;9.874;2023-10-08T02:49:15;0.70;;;0.70;;
13795;SDS011;40911;51.552;9.874;2023-10-08T02:51:40;0.73;;;0.60;;
13795;SDS011;40911;51.552;9.874;2023-10-08T02:54:03;1.48;;;0.70;;
13795;SDS011;40911;51.552;9.874;2023-10-08T02:56:26;0.60;;;0.60;;
13795;SDS011;40911;51.552;9.874;2023-10-08T02:58:52;0.60;;;0.60;;
13795;SDS011;40911;51.552;9.874;2023-10-08T03:01:15;0.70;;;0.70;;
13795;SDS011;40911;51.552;9.874;2023-10-08T03:05:59;0.68;;;0.68;;
13795;SDS011;40911;51.552;9.874;2023-10-08T03:08:23;0.70;;;0.70;;
13795;SDS011;40911;51.552;9.874;2023-10-08T03:10:50;0.70;;;0.70;;
13795;SDS011;40911;51.552;9.874;2023-10-08T03:13:15;0.70;;;0.70;;
13795;SDS011;40911;51.552;9.874;2023-10-08T03:15:37;0.70;;;0.70;;
13795;SDS011;40911;51.552;9.874;2023-10-08T03:18:06;0.60;;;0.60;;
13795;SDS011;40911;51.552;9.874;2023-10-08T03:20:36;1.27;;;0.70;;
13795;SDS011;40911;51.552;9.874;2023-10-08T03:23:02;0.77;;;0.77;;
13795;SDS011;40911;51.552;9.874;2023-10-08T03:25:27;0.70;;;0.70;;
13795;SDS011;40911;51.552;9.874;2023-10-08T03:27:50;0.70;;;0.70;;
13795;SDS011;40911;51.552;9.874;2023-10-08T03:30:14;0.65;;;0.65;;
13795;SDS011;40911;51.552;9.874;2023-10-08T03:32:36;0.77;;;0.77;;
13795;SDS011;40911;51.552;9.874;2023-10-08T03:34:58;0.70;;;0.70;;
13795;SDS011;40911;51.552;9.874;2023-10-08T03:37:22;0.98;;;0.80;;
13795;SDS011;40911;51.552;9.874;2023-10-08T03:39:49;0.80;;;0.80;;
13795;SDS011;40911;51.552;9.874;2023-10-08T03:42:12;1.33;;;0.80;;
13795;SDS011;40911;51.552;9.874;2023-10-08T03:44:40;0.70;;;0.70;;
13795;SDS011;40911;51.552;9.874;2023-10-08T03:47:03;1.73;;;0.80;;
13795;SDS011;40911;51.552;9.874;2023-10-08T03:49:30;1.30;;;0.80;;
13795;SDS011;40911;51.552;9.874;2023-10-08T03:51:53;0.80;;;0.80;;
13795;SDS011;40911;51.552;9.874;2023-10-08T03:54:18;0.80;;;0.80;;
13795;SDS011;40911;51.552;9.874;2023-10-08T03:56:49;1.08;;;0.80;;
13795;SDS011;40911;51.552;9.874;2023-10-08T03:59:12;0.80;;;0.80;;
13795;SDS011;40911;51.552;9.874;2023-10-08T04:01:34;1.40;;;0.90;;
13795;SDS011;40911;51.552;9.874;2023-10-08T04:03:59;3.58;;;1.35;;
13795;SDS011;40911;51.552;9.874;2023-10-08T04:08:48;3.35;;;1.08;;
13795;SDS011;40911;51.552;9.874;2023-10-08T04:11:26;3.42;;;0.90;;
13795;SDS011;40911;51.552;9.874;2023-10-08T04:13:52;1.88;;;1.00;;
13795;SDS011;40911;51.552;9.874;2023-10-08T04:18:38;2.05;;;1.10;;
13795;SDS011;40911;51.552;9.874;2023-10-08T04:23:24;3.00;;;1.10;;
13795;SDS011;40911;51.552;9.874;2023-10-08T04:28:15;1.70;;;1.20;;
13795;SDS011;40911;51.552;9.874;2023-10-08T04:30:40;3.70;;;1.80;;
13795;SDS011;40911;51.552;9.874;2023-10-08T04:33:03;3.67;;;1.30;;
13795;SDS011;40911;51.552;9.874;2023-10-08T04:35:27;3.72;;;1.30;;
13795;SDS011;40911;51.552;9.874;2023-10-08T04:40:12;2.00;;;1.30;;
13795;SDS011;40911;51.552;9.874;2023-10-08T04:42:36;2.40;;;1.33;;
13795;SDS011;40911;51.552;9.874;2023-10-08T04:47:22;3.63;;;1.50;;
13795;SDS011;40911;51.552;9.874;2023-10-08T04:49:53;1.95;;;1.40;;
13795;SDS011;40911;51.552;9.874;2023-10-08T04:52:16;3.70;;;1.40;;
13795;SDS011;40911;51.552;9.874;2023-10-08T04:54:40;6.13;;;1.40;;
13795;SDS011;40911;51.552;9.874;2023-10-08T04:57:11;2.17;;;1.50;;
13795;SDS011;40911;51.552;9.874;2023-10-08T04:59:35;3.05;;;1.55;;
13795;SDS011;40911;51.552;9.874;2023-10-08T05:01:58;4.68;;;1.48;;
13795;SDS011;40911;51.552;9.874;2023-10-08T05:04:38;2.42;;;1.98;;
13795;SDS011;40911;51.552;9.874;2023-10-08T05:07:16;1.85;;;1.50;;
13795;SDS011;40911;51.552;9.874;2023-10-08T05:10:00;3.10;;;1.52;;
13795;SDS011;40911;51.552;9.874;2023-10-08T05:12:32;3.10;;;1.60;;
13795;SDS011;40911;51.552;9.874;2023-10-08T05:14:57;6.80;;;1.60;;
13795;SDS011;40911;51.552;9.874;2023-10-08T05:17:34;6.25;;;1.73;;
13795;SDS011;40911;51.552;9.874;2023-10-08T05:20:06;3.45;;;1.50;;
13795;SDS011;40911;51.552;9.874;2023-10-08T05:22:39;6.60;;;1.63;;
13795;SDS011;40911;51.552;9.874;2023-10-08T05:25:05;2.53;;;1.60;;
13795;SDS011;40911;51.552;9.874;2023-10-08T05:27:28;3.75;;;1.50;;
13795;SDS011;40911;51.552;9.874;2023-10-08T05:30:16;4.25;;;1.70;;
13795;SDS011;40911;51.552;9.874;2023-10-08T05:32:49;3.92;;;1.63;;
13795;SDS011;40911;51.552;9.874;2023-10-08T05:35:32;6.60;;;1.60;;
13795;SDS011;40911;51.552;9.874;2023-10-08T05:38:17;4.25;;;1.70;;
13795;SDS011;40911;51.552;9.874;2023-10-08T05:40:43;4.78;;;1.50;;
13795;SDS011;40911;51.552;9.874;2023-10-08T05:43:25;4.15;;;1.50;;
13795;SDS011;40911;51.552;9.874;2023-10-08T05:46:09;3.05;;;1.40;;
13795;SDS011;40911;51.552;9.874;2023-10-08T05:49:00;4.78;;;1.50;;
13795;SDS011;40911;51.552;9.874;2023-10-08T05:51:22;4.75;;;1.40;;
13795;SDS011;40911;51.552;9.874;2023-10-08T05:53:54;4.82;;;1.70;;
13795;SDS011;40911;51.552;9.874;2023-10-08T05:56:16;6.72;;;1.67;;
13795;SDS011;40911;51.552;9.874;2023-10-08T05:58:48;4.88;;;1.75;;
13795;SDS011;40911;51.552;9.874;2023-10-08T06:01:20;3.08;;;1.70;;
13795;SDS011;40911;51.552;9.874;2023-10-08T06:04:01;3.83;;;1.80;;
13795;SDS011;40911;51.552;9.874;2023-10-08T06:06:41;3.87;;;1.80;;
13795;SDS011;40911;51.552;9.874;2023-10-08T06:09:17;2.80;;;1.40;;
13795;SDS011;40911;51.552;9.874;2023-10-08T06:11:42;4.38;;;1.30;;
13795;SDS011;40911;51.552;9.874;2023-10-08T06:14:05;2.83;;;1.50;;
13795;SDS011;40911;51.552;9.874;2023-10-08T06:16:36;4.22;;;1.50;;
13795;SDS011;40911;51.552;9.874;2023-10-08T06:19:03;2.00;;;1.50;;
13795;SDS011;40911;51.552;9.874;2023-10-08T06:21:25;4.38;;;1.40;;
13795;SDS011;40911;51.552;9.874;2023-10-08T06:23:47;3.78;;;1.70;;
13795;SDS011;40911;51.552;9.874;2023-10-08T06:26:09;3.88;;;1.40;;
13795;SDS011;40911;51.552;9.874;2023-10-08T06:28:35;2.58;;;1.40;;
13795;SDS011;40911;51.552;9.874;2023-10-08T06:30:58;2.55;;;1.40;;
13795;SDS011;40911;51.552;9.874;2023-10-08T06:33:21;2.85;;;1.45;;
13795;SDS011;40911;51.552;9.874;2023-10-08T06:35:46;2.33;;;1.40;;
13795;SDS011;40911;51.552;9.874;2023-10-08T06:38:21;3.05;;;1.52;;
13795;SDS011;40911;51.552;9.874;2023-10-08T06:40:44;3.17;;;1.70;;
13795;SDS011;40911;51.552;9.874;2023-10-08T06:43:08;2.47;;;1.40;;
13795;SDS011;40911;51.552;9.874;2023-10-08T06:45:34;4.35;;;1.63;;
13795;SDS011;40911;51.552;9.874;2023-10-08T06:47:56;7.20;;;1.50;;
13795;SDS011;40911;51.552;9.874;2023-10-08T06:50:18;3.35;;;1.58;;
13795;SDS011;40911;51.552;9.874;2023-10-08T06:52:43;4.70;;;1.60;;
13795;SDS011;40911;51.552;9.874;2023-10-08T06:55:05;5.00;;;1.50;;
13795;SDS011;40911;51.552;9.874;2023-10-08T06:57:31;3.33;;;1.60;;
13795;SDS011;40911;51.552;9.874;2023-10-08T07:02:14;4.05;;;1.60;;
13795;SDS011;40911;51.552;9.874;2023-10-08T07:04:37;2.72;;;1.50;;
13795;SDS011;40911;51.552;9.874;2023-10-08T07:07:00;2.95;;;1.40;;
13795;SDS011;40911;51.552;9.874;2023-10-08T07:11:49;2.45;;;1.40;;
13795;SDS011;40911;51.552;9.874;2023-10-08T07:14:14;4.28;;;2.15;;
13795;SDS011;40911;51.552;9.874;2023-10-08T07:18:58;2.22;;;1.40;;
13795;SDS011;40911;51.552;9.874;2023-10-08T07:21:25;3.40;;;1.40;;
13795;SDS011;40911;51.552;9.874;2023-10-08T07:23:49;2.78;;;1.40;;
13795;SDS011;40911;51.552;9.874;2023-10-08T07:26:18;1.50;;;1.25;;
13795;SDS011;40911;51.552;9.874;2023-10-08T07:28:44;2.40;;;1.50;;
13795;SDS011;40911;51.552;9.874;2023-10-08T07:31:12;2.65;;;1.40;;
13795;SDS011;40911;51.552;9.874;2023-10-08T07:33:36;6.75;;;1.55;;
13795;SDS011;40911;51.552;9.874;2023-10-08T07:35:57;6.25;;;1.85;;
13795;SDS011;40911;51.552;9.874;2023-10-08T07:38:32;7.10;;;1.50;;
13795;SDS011;40911;51.552;9.874;2023-10-08T07:40:55;4.80;;;1.80;;
13795;SDS011;40911;51.552;9.874;2023-10-08T07:43:19;6.32;;;1.80;;
13795;SDS011;40911;51.552;9.874;2023-10-08T07:45:40;3.58;;;1.50;;
13795;SDS011;40911;51.552;9.874;2023-10-08T07:48:05;3.22;;;1.83;;
13795;SDS011;40911;51.552;9.874;2023-10-08T07:50:30;3.15;;;1.77;;
13795;SDS011;40911;51.552;9.874;2023-10-08T07:52:51;2.63;;;1.73;;
13795;SDS011;40911;51.552;9.874;2023-10-08T07:55:16;2.63;;;1.83;;
13795;SDS011;40911;51.552;9.874;2023-10-08T07:57:38;4.88;;;1.63;;
13795;SDS011;40911;51.552;9.874;2023-10-08T08:00:01;2.70;;;1.65;;
13795;SDS011;40911;51.552;9.874;2023-10-08T08:02:38;2.10;;;1.50;;
13795;SDS011;40911;51.552;9.874;2023-10-08T08:05:02;3.67;;;1.58;;
13795;SDS011;40911;51.552;9.874;2023-10-08T08:07:24;1.65;;;1.23;;
13795;SDS011;40911;51.552;9.874;2023-10-08T08:09:46;4.35;;;1.60;;
13795;SDS011;40911;51.552;9.874;2023-10-08T08:12:11;3.35;;;1.45;;
13795;SDS011;40911;51.552;9.874;2023-10-08T08:14:33;3.08;;;1.65;;
13795;SDS011;40911;51.552;9.874;2023-10-08T08:16:59;3.90;;;1.70;;
13795;SDS011;40911;51.552;9.874;2023-10-08T08:19:33;3.85;;;1.58;;
13795;SDS011;40911;51.552;9.874;2023-10-08T08:21:56;2.67;;;1.70;;
13795;SDS011;40911;51.552;9.874;2023-10-08T08:24:22;3.47;;;1.55;;
13795;SDS011;40911;51.552;9.874;2023-10-08T08:26:51;4.15;;;1.60;;
13795;SDS011;40911;51.552;9.874;2023-10-08T08:29:21;2.90;;;1.60;;
13795;SDS011;40911;51.552;9.874;2023-10-08T08:31:44;7.32;;;1.50;;
13795;SDS011;40911;51.552;9.874;2023-10-08T08:36:34;4.18;;;1.90;;
13795;SDS011;40911;51.552;9.874;2023-10-08T08:38:58;5.63;;;1.60;;
13795;SDS011;40911;51.552;9.874;2023-10-08T08:43:43;2.90;;;1.63;;
13795;SDS011;40911;51.552;9.874;2023-10-08T08:46:06;2.05;;;1.80;;
13795;SDS011;40911;51.552;9.874;2023-10-08T08:48:30;4.20;;;1.70;;
13795;SDS011;40911;51.552;9.874;2023-10-08T08:50:56;3.22;;;1.70;;
13795;SDS011;40911;51.552;9.874;2023-10-08T08:53:18;2.17;;;1.60;;
13795;SDS011;40911;51.552;9.874;2023-10-08T08:55:42;3.20;;;1.67;;
13795;SDS011;40911;51.552;9.874;2023-10-08T08:58:04;2.50;;;1.83;;
13795;SDS011;40911;51.552;9.874;2023-10-08T09:00:31;3.88;;;1.75;;
13795;SDS011;40911;51.552;9.874;2023-10-08T09:05:15;2.03;;;1.90;;
13795;SDS011;40911;51.552;9.874;2023-10-08T09:07:53;3.75;;;1.60;;
13795;SDS011;40911;51.552;9.874;2023-10-08T09:10:16;3.88;;;1.65;;
13795;SDS011;40911;51.552;9.874;2023-10-08T09:15:00;2.65;;;1.77;;
13795;SDS011;40911;51.552;9.874;2023-10-08T09:17:25;1.55;;;1.40;;
13795;SDS011;40911;51.552;9.874;2023-10-08T09:19:47;3.53;;;1.45;;
13795;SDS011;40911;51.552;9.874;2023-10-08T09:22:11;6.60;;;1.80;;
13795;SDS011;40911;51.552;9.874;2023-10-08T09:24:37;1.60;;;1.50;;
13795;SDS011;40911;51.552;9.874;2023-10-08T09:26:59;3.25;;;2.00;;
13795;SDS011;40911;51.552;9.874;2023-10-08T09:29:22;3.53;;;1.40;;
13795;SDS011;40911;51.552;9.874;2023-10-08T09:31:50;4.72;;;1.58;;
13795;SDS011;40911;51.552;9.874;2023-10-08T09:34:16;2.17;;;1.73;;
13795;SDS011;40911;51.552;9.874;2023-10-08T09:36:38;2.78;;;1.40;;
13795;SDS011;40911;51.552;9.874;2023-10-08T09:39:02;3.22;;;1.55;;
13795;SDS011;40911;51.552;9.874;2023-10-08T09:41:28;2.72;;;1.45;;
13795;SDS011;40911;51.552;9.874;2023-10-08T09:43:51;2.45;;;1.35;;
13795;SDS011;40911;51.552;9.874;2023-10-08T09:46:18;4.15;;;1.60;;
13795;SDS011;40911;51.552;9.874;2023-10-08T09:48:41;2.47;;;1.52;;
13795;SDS011;40911;51.552;9.874;2023-10-08T09:51:05;2.47;;;1.38;;
13795;SDS011;40911;51.552;9.874;2023-10-08T09:53:31;2.60;;;1.30;;
13795;SDS011;40911;51.552;9.874;2023-10-08T09:55:59;5.40;;;1.58;;
13795;SDS011;40911;51.552;9.874;2023-10-08T09:58:28;4.90;;;1.60;;
13795;SDS011;40911;51.552;9.874;2023-10-08T10:00:50;4.00;;;2.25;;
13795;SDS011;40911;51.552;9.874;2023-10-08T10:03:14;3.28;;;1.45;;
13795;SDS011;40911;51.552;9.874;2023-10-08T10:05:38;2.92;;;1.48;;
13795;SDS011;40911;51.552;9.874;2023-10-08T10:10:25;3.42;;;1.58;;
13795;SDS011;40911;51.552;9.874;2023-10-08T10:12:50;4.68;;;1.65;;
13795;SDS011;40911;51.552;9.874;2023-10-08T10:15:14;2.28;;;1.48;;
13795;SDS011;40911;51.552;9.874;2023-10-08T10:17:37;7.10;;;1.77;;
13795;SDS011;40911;51.552;9.874;2023-10-08T10:19:59;3.45;;;1.33;;
13795;SDS011;40911;51.552;9.874;2023-10-08T10:22:31;1.40;;;1.30;;
13795;SDS011;40911;51.552;9.874;2023-10-08T10:24:56;3.88;;;1.50;;
13795;SDS011;40911;51.552;9.874;2023-10-08T10:27:18;3.83;;;1.50;;
13795;SDS011;40911;51.552;9.874;2023-10-08T10:29:40;4.63;;;1.65;;
13795;SDS011;40911;51.552;9.874;2023-10-08T10:32:04;3.78;;;1.60;;
13795;SDS011;40911;51.552;9.874;2023-10-08T10:34:26;3.22;;;1.27;;
13795;SDS011;40911;51.552;9.874;2023-10-08T10:36:50;3.92;;;1.70;;
13795;SDS011;40911;51.552;9.874;2023-10-08T10:39:18;7.00;;;2.78;;
13795;SDS011;40911;51.552;9.874;2023-10-08T10:41:46;6.55;;;1.50;;
13795;SDS011;40911;51.552;9.874;2023-10-08T10:44:09;5.63;;;1.58;;
13795;SDS011;40911;51.552;9.874;2023-10-08T10:46:31;2.60;;;1.40;;
13795;SDS011;40911;51.552;9.874;2023-10-08T10:48:54;3.00;;;1.50;;
13795;SDS011;40911;51.552;9.874;2023-10-08T10:51:36;3.45;;;1.42;;
13795;SDS011;40911;51.552;9.874;2023-10-08T10:54:01;2.55;;;1.27;;
13795;SDS011;40911;51.552;9.874;2023-10-08T10:56:30;3.55;;;1.35;;
13795;SDS011;40911;51.552;9.874;2023-10-08T10:58:51;2.10;;;1.50;;
13795;SDS011;40911;51.552;9.874;2023-10-08T11:01:13;3.30;;;1.48;;
13795;SDS011;40911;51.552;9.874;2023-10-08T11:03:43;2.20;;;1.17;;
13795;SDS011;40911;51.552;9.874;2023-10-08T11:06:09;2.65;;;1.17;;
13795;SDS011;40911;51.552;9.874;2023-10-08T11:08:35;4.32;;;1.58;;
13795;SDS011;40911;51.552;9.874;2023-10-08T11:13:19;2.72;;;1.38;;
13795;SDS011;40911;51.552;9.874;2023-10-08T11:15:41;1.92;;;1.20;;
13795;SDS011;40911;51.552;9.874;2023-10-08T11:18:09;6.20;;;1.50;;
13795;SDS011;40911;51.552;9.874;2023-10-08T11:20:31;2.08;;;1.23;;
13795;SDS011;40911;51.552;9.874;2023-10-08T11:22:59;3.97;;;1.25;;
13795;SDS011;40911;51.552;9.874;2023-10-08T11:25:37;2.20;;;1.40;;
13795;SDS011;40911;51.552;9.874;2023-10-08T11:28:03;2.67;;;1.30;;
13795;SDS011;40911;51.552;9.874;2023-10-08T11:30:30;5.35;;;1.30;;
13795;SDS011;40911;51.552;9.874;2023-10-08T11:32:55;4.32;;;1.30;;
13795;SDS011;40911;51.552;9.874;2023-10-08T11:35:17;5.65;;;1.35;;
13795;SDS011;40911;51.552;9.874;2023-10-08T11:37:44;4.65;;;1.48;;
13795;SDS011;40911;51.552;9.874;2023-10-08T11:40:10;5.38;;;1.30;;
13795;SDS011;40911;51.552;9.874;2023-10-08T11:42:48;3.67;;;1.60;;
13795;SDS011;40911;51.552;9.874;2023-10-08T11:45:11;4.15;;;1.20;;
13795;SDS011;40911;51.552;9.874;2023-10-08T11:47:39;3.15;;;1.45;;
13795;SDS011;40911;51.552;9.874;2023-10-08T11:50:02;1.58;;;1.15;;
13795;SDS011;40911;51.552;9.874;2023-10-08T11:52:30;1.88;;;1.30;;
13795;SDS011;40911;51.552;9.874;2023-10-08T11:57:15;4.05;;;1.50;;
13795;SDS011;40911;51.552;9.874;2023-10-08T11:59:41;2.80;;;1.10;;
13795;SDS011;40911;51.552;9.874;2023-10-08T12:02:04;6.10;;;1.30;;
13795;SDS011;40911;51.552;9.874;2023-10-08T12:06:49;4.75;;;1.30;;
13795;SDS011;40911;51.552;9.874;2023-10-08T12:09:12;1.50;;;1.10;;
13795;SDS011;40911;51.552;9.874;2023-10-08T12:11:34;3.63;;;1.20;;
13795;SDS011;40911;51.552;9.874;2023-10-08T12:13:59;6.55;;;1.35;;
13795;SDS011;40911;51.552;9.874;2023-10-08T12:16:21;4.78;;;1.48;;
13795;SDS011;40911;51.552;9.874;2023-10-08T12:21:06;5.15;;;1.52;;
13795;SDS011;40911;51.552;9.874;2023-10-08T12:23:30;2.60;;;1.30;;
13795;SDS011;40911;51.552;9.874;2023-10-08T12:25:54;3.38;;;1.38;;
13795;SDS011;40911;51.552;9.874;2023-10-08T12:28:16;4.07;;;1.50;;
13795;SDS011;40911;51.552;9.874;2023-10-08T12:30:40;3.30;;;1.30;;
13795;SDS011;40911;51.552;9.874;2023-10-08T12:33:03;4.18;;;1.30;;
13795;SDS011;40911;51.552;9.874;2023-10-08T12:35:26;8.20;;;3.30;;
13795;SDS011;40911;51.552;9.874;2023-10-08T12:37:49;3.30;;;1.67;;
13795;SDS011;40911;51.552;9.874;2023-10-08T12:40:11;3.05;;;1.50;;
13795;SDS011;40911;51.552;9.874;2023-10-08T12:42:42;5.20;;;1.30;;
13795;SDS011;40911;51.552;9.874;2023-10-08T12:45:05;2.28;;;1.30;;
13795;SDS011;40911;51.552;9.874;2023-10-08T12:47:33;3.88;;;1.42;;
13795;SDS011;40911;51.552;9.874;2023-10-08T12:49:56;4.80;;;1.30;;
13795;SDS011;40911;51.552;9.874;2023-10-08T12:52:18;2.28;;;1.35;;
13795;SDS011;40911;51.552;9.874;2023-10-08T12:54:40;8.10;;;1.73;;
13795;SDS011;40911;51.552;9.874;2023-10-08T12:57:05;5.07;;;1.30;;
13795;SDS011;40911;51.552;9.874;2023-10-08T12:59:29;2.67;;;1.52;;
13795;SDS011;40911;51.552;9.874;2023-10-08T13:01:51;5.00;;;1.23;;
13795;SDS011;40911;51.552;9.874;2023-10-08T13:04:15;6.57;;;1.50;;
13795;SDS011;40911;51.552;9.874;2023-10-08T13:06:41;3.25;;;1.42;;
13795;SDS011;40911;51.552;9.874;2023-10-08T13:09:05;2.75;;;1.30;;
13795;SDS011;40911;51.552;9.874;2023-10-08T13:11:32;2.72;;;1.40;;
13795;SDS011;40911;51.552;9.874;2023-10-08T13:13:55;4.50;;;1.40;;
13795;SDS011;40911;51.552;9.874;2023-10-08T13:16:17;3.50;;;1.52;;
13795;SDS011;40911;51.552;9.874;2023-10-08T13:18:41;5.00;;;1.40;;
13795;SDS011;40911;51.552;9.874;2023-10-08T13:21:05;3.80;;;1.58;;
13795;SDS011;40911;51.552;9.874;2023-10-08T13:23:28;4.20;;;1.30;;
13795;SDS011;40911;51.552;9.874;2023-10-08T13:25:50;1.70;;;1.17;;
13795;SDS011;40911;51.552;9.874;2023-10-08T13:28:14;5.30;;;1.52;;
13795;SDS011;40911;51.552;9.874;2023-10-08T13:32:57;3.85;;;1.60;;
13795;SDS011;40911;51.552;9.874;2023-10-08T13:35:19;6.13;;;1.58;;
13795;SDS011;40911;51.552;9.874;2023-10-08T13:40:05;6.43;;;1.75;;
13795;SDS011;40911;51.552;9.874;2023-10-08T13:42:27;5.70;;;2.35;;
13795;SDS011;40911;51.552;9.874;2023-10-08T13:44:49;5.43;;;1.50;;
13795;SDS011;40911;51.552;9.874;2023-10-08T13:47:11;2.72;;;1.25;;
13795;SDS011;40911;51.552;9.874;2023-10-08T13:49:35;3.03;;;1.35;;
13795;SDS011;40911;51.552;9.874;2023-10-08T13:52:01;4.35;;;1.50;;
13795;SDS011;40911;51.552;9.874;2023-10-08T13:56:49;4.38;;;1.20;;
13795;SDS011;40911;51.552;9.874;2023-10-08T13:59:11;3.38;;;1.30;;
13795;SDS011;40911;51.552;9.874;2023-10-08T14:01:33;3.13;;;1.40;;
13795;SDS011;40911;51.552;9.874;2023-10-08T14:03:55;7.72;;;1.50;;
13795;SDS011;40911;51.552;9.874;2023-10-08T14:06:24;4.85;;;1.42;;
13795;SDS011;40911;51.552;9.874;2023-10-08T14:08:46;3.78;;;1.35;;
13795;SDS011;40911;51.552;9.874;2023-10-08T14:11:13;2.40;;;1.23;;
13795;SDS011;40911;51.552;9.874;2023-10-08T14:13:35;4.47;;;1.50;;
13795;SDS011;40911;51.552;9.874;2023-10-08T14:15:57;4.05;;;1.35;;
13795;SDS011;40911;51.552;9.874;2023-10-08T14:18:19;3.03;;;1.30;;
13795;SDS011;40911;51.552;9.874;2023-10-08T14:20:46;3.88;;;1.30;;
13795;SDS011;40911;51.552;9.874;2023-10-08T14:23:13;1.75;;;1.10;;
13795;SDS011;40911;51.552;9.874;2023-10-08T14:25:37;3.47;;;1.50;;
13795;SDS011;40911;51.552;9.874;2023-10-08T14:28:06;4.35;;;1.50;;
13795;SDS011;40911;51.552;9.874;2023-10-08T14:30:37;2.78;;;1.20;;
13795;SDS011;40911;51.552;9.874;2023-10-08T14:33:02;2.75;;;1.10;;
13795;SDS011;40911;51.552;9.874;2023-10-08T14:35:29;3.20;;;1.17;;
13795;SDS011;40911;51.552;9.874;2023-10-08T14:38:08;2.10;;;1.20;;
13795;SDS011;40911;51.552;9.874;2023-10-08T14:40:48;2.85;;;1.33;;
13795;SDS011;40911;51.552;9.874;2023-10-08T14:43:29;3.13;;;1.40;;
13795;SDS011;40911;51.552;9.874;2023-10-08T14:45:54;4.05;;;1.27;;
13795;SDS011;40911;51.552;9.874;2023-10-08T14:48:16;4.07;;;1.08;;
13795;SDS011;40911;51.552;9.874;2023-10-08T14:52:59;6.30;;;1.40;;
13795;SDS011;40911;51.552;9.874;2023-10-08T14:55:21;7.25;;;1.30;;
13795;SDS011;40911;51.552;9.874;2023-10-08T14:57:43;5.18;;;1.30;;
13795;SDS011;40911;51.552;9.874;2023-10-08T15:02:30;4.43;;;1.50;;
13795;SDS011;40911;51.552;9.874;2023-10-08T15:04:53;2.50;;;1.15;;
13795;SDS011;40911;51.552;9.874;2023-10-08T15:07:15;3.15;;;1.13;;
13795;SDS011;40911;51.552;9.874;2023-10-08T15:09:38;4.03;;;1.25;;
13795;SDS011;40911;51.552;9.874;2023-10-08T15:12:00;5.50;;;1.25;;
13795;SDS011;40911;51.552;9.874;2023-10-08T15:16:46;6.82;;;1.50;;
13795;SDS011;40911;51.552;9.874;2023-10-08T15:19:12;2.05;;;1.20;;
13795;SDS011;40911;51.552;9.874;2023-10-08T15:21:35;5.32;;;1.40;;
13795;SDS011;40911;51.552;9.874;2023-10-08T15:23:59;2.33;;;1.27;;
13795;SDS011;40911;51.552;9.874;2023-10-08T15:26:25;2.88;;;1.90;;
13795;SDS011;40911;51.552;9.874;2023-10-08T15:31:08;5.28;;;1.38;;
13795;SDS011;40911;51.552;9.874;2023-10-08T15:35:53;2.17;;;1.17;;
13795;SDS011;40911;51.552;9.874;2023-10-08T15:38:16;4.13;;;1.30;;
13795;SDS011;40911;51.552;9.874;2023-10-08T15:43:00;3.05;;;1.13;;
13795;SDS011;40911;51.552;9.874;2023-10-08T15:45:22;2.95;;;1.45;;
13795;SDS011;40911;51.552;9.874;2023-10-08T15:47:44;4.03;;;1.40;;
13795;SDS011;40911;51.552;9.874;2023-10-08T15:50:08;2.55;;;1.40;;
13795;SDS011;40911;51.552;9.874;2023-10-08T15:52:31;5.63;;;1.33;;
13795;SDS011;40911;51.552;9.874;2023-10-08T15:57:14;4.60;;;1.55;;
13795;SDS011;40911;51.552;9.874;2023-10-08T15:59:35;3.40;;;1.70;;